Mobile Downtown Airport
KBFM : now visible

Airfield :











YOU CAN JOIN US ON...

 
LOGIN :

Register | Disclaimer

   EN    FR    IT 

 









Legend :    VFR   Marginal VFR   IFR   Intensive IFR   Very Intensive IFR
Visi :
Ceiling :
>= 8 km
>= 3000ft
5 to 8 km
1000 to 3000 ft
1500m to 5 km
500 to 1000 ft
800 to 1500m
200 to 500 ft
< 800m
< 200 ft
Symbols :   Thunderstorms  Fog  Heavy snow  Heavy precipitations  Wind > 20 kt






- Airport Elevation : 26 ft


KBFM - Mobile Downtown

CURRENT METAR :
  • 270431Z AUTO 16004KT 10SM FEW002 SCT065 18/18 A3009 RMK AO2 T01830178

EXPIRED METARs :
  • 270353Z AUTO 17005KT 4SM BR OVC002 19/18 A3009 RMK AO2 SLP189 T01890183
  • 270253Z 17006KT 10SM BKN003 OVC065 19/18 A3008 RMK AO2 SLP185 T01890183 53007
  • 270225Z 18006KT 10SM FEW003 OVC065 19/18 A3007 RMK AO2 T01940183
  • 270153Z 17007KT 10SM OVC065 19/18 A3006 RMK AO2 SLP179 T01890178

TAF KBFM
Valid from the 27 at 03:00 until the 28 at 00:00 UTC


270310Z 2703/2724 17006KT P6SM BKN003 OVC070
FM270600 17004KT 2SM BR BKN009
FM270800 16004KT 1/4SM FG BKN007
FM271500 15005KT 4SM BR BKN008
FM271800 15009KT P6SM OVC025
KZHU FIR / North America



MET'MAP, your aeronautical weather chart ! - Copyright ORBIFLY December 2007 - Disclaimer

ORBIFLY MET'MAP TEAM :

Programming & Development : Alexandra Zaïnal
Concept & original design : Baudouin d'Aumeries
Assistance for programming : Marc-Olivier Méhu
Technical & hardware support : Manuel Goepfert

Contact : metmap@orbifly.com




SOURCES & CREDITS :

   NOAA       Earth
Advisory